createdAt,value
2018-08-23T00:01:30.061Z,17.63
2018-08-23T00:04:04.485Z,11.63
2018-08-23T00:06:32.184Z,21.57
2018-08-23T00:08:59.876Z,18.17
2018-08-23T00:11:29.096Z,20.52
2018-08-23T00:13:56.918Z,19.67
2018-08-23T00:16:31.680Z,18.98
2018-08-23T00:18:59.763Z,16.53
2018-08-23T00:21:27.987Z,18.00
2018-08-23T00:24:09.553Z,16.70
2018-08-23T00:26:38.418Z,22.93
2018-08-23T00:29:38.846Z,15.37
2018-08-23T00:32:07.462Z,15.37
2018-08-23T00:34:36.346Z,19.20
2018-08-23T00:37:04.743Z,11.30
2018-08-23T00:39:32.418Z,18.90
2018-08-23T00:42:05.153Z,11.12
2018-08-23T00:44:53.394Z,14.90
2018-08-23T00:47:24.848Z,15.63
2018-08-23T00:49:52.455Z,12.80
2018-08-23T00:52:46.321Z,13.93
2018-08-23T00:55:23.664Z,13.83
2018-08-23T00:57:51.354Z,11.13
2018-08-23T01:00:22.184Z,10.70
2018-08-23T01:02:51.119Z,11.27
2018-08-23T01:05:24.657Z,12.80
2018-08-23T01:07:52.637Z,11.97
2018-08-23T01:10:20.630Z,11.27
2018-08-23T01:12:59.394Z,12.70
2018-08-23T01:15:27.604Z,15.40
2018-08-23T01:18:10.997Z,10.50
2018-08-23T01:20:39.536Z,9.47
2018-08-23T01:23:07.217Z,14.00
2018-08-23T01:25:36.312Z,10.98
2018-08-23T01:28:04.492Z,12.23
2018-08-23T01:30:32.237Z,11.20
2018-08-23T01:32:59.971Z,10.10
2018-08-23T01:35:27.910Z,12.78
2018-08-23T01:37:55.636Z,11.85
2018-08-23T01:40:23.333Z,12.80
2018-08-23T01:42:51.029Z,10.70
2018-08-23T01:45:18.759Z,11.97
2018-08-23T01:47:51.988Z,10.90
2018-08-23T01:50:19.656Z,13.50
2018-08-23T01:52:48.366Z,14.47
2018-08-23T01:55:16.898Z,24.63
2018-08-23T01:57:44.856Z,9.83
2018-08-23T02:00:13.674Z,9.77
2018-08-23T02:02:41.402Z,9.80
2018-08-23T02:05:09.154Z,9.60
2018-08-23T02:07:43.594Z,13.45
2018-08-23T02:10:11.299Z,10.30
2018-08-23T02:12:38.923Z,9.43
2018-08-23T02:15:09.904Z,10.50
2018-08-23T02:17:44.116Z,12.70
2018-08-23T02:20:11.846Z,12.17
2018-08-23T02:22:39.538Z,14.25
2018-08-23T02:25:07.516Z,10.20
2018-08-23T02:27:51.147Z,12.45
2018-08-23T02:30:38.640Z,13.13
2018-08-23T02:33:06.376Z,13.97
2018-08-23T02:35:34.483Z,12.30
2018-08-23T02:38:02.152Z,11.47
2018-08-23T02:40:30.861Z,13.15
2018-08-23T02:42:58.549Z,11.53
2018-08-23T02:45:30.902Z,16.65
2018-08-23T02:47:59.955Z,10.87
2018-08-23T02:50:27.616Z,10.30
2018-08-23T02:52:59.963Z,12.07
2018-08-23T02:55:27.679Z,10.73
2018-08-23T02:57:59.012Z,11.43
2018-08-23T03:00:31.410Z,12.37
2018-08-23T03:03:00.966Z,13.23
2018-08-23T03:05:28.630Z,9.70
2018-08-23T03:07:56.310Z,12.95
2018-08-23T03:10:24.060Z,10.50
2018-08-23T03:12:51.797Z,17.63
2018-08-23T03:15:24.361Z,10.03
2018-08-23T03:17:52.891Z,11.53
2018-08-23T03:20:20.696Z,13.87
2018-08-23T03:22:53.329Z,11.43
2018-08-23T03:25:22.097Z,12.47
2018-08-23T03:27:51.030Z,10.23
2018-08-23T03:30:19.355Z,11.30
2018-08-23T03:32:47.040Z,13.67
2018-08-23T03:35:14.799Z,14.00
2018-08-23T03:37:42.595Z,11.88
2018-08-23T03:40:12.148Z,15.20
2018-08-23T03:42:40.050Z,14.83
2018-08-23T03:45:14.761Z,13.43
2018-08-23T03:47:48.353Z,22.47
2018-08-23T03:50:16.117Z,12.77
2018-08-23T03:52:46.554Z,13.63
2018-08-23T03:55:18.046Z,13.30
2018-08-23T03:57:50.959Z,16.10
2018-08-23T04:00:25.757Z,11.80
2018-08-23T04:02:54.908Z,16.83
2018-08-23T04:05:22.625Z,12.80
2018-08-23T04:07:50.299Z,15.23
2018-08-23T04:10:18.024Z,12.07
2018-08-23T04:12:45.708Z,14.67
2018-08-23T04:15:31.312Z,13.50
2018-08-23T04:18:06.123Z,12.40
2018-08-23T04:20:33.835Z,13.97
2018-08-23T04:23:01.615Z,16.02
2018-08-23T04:25:29.243Z,12.28
2018-08-23T04:27:56.893Z,14.63
2018-08-23T04:30:24.521Z,18.70
2018-08-23T04:32:52.234Z,14.30
2018-08-23T04:35:24.690Z,14.73
2018-08-23T04:37:52.370Z,15.03
2018-08-23T04:40:20.009Z,16.05
2018-08-23T04:42:47.729Z,14.38
2018-08-23T04:45:18.311Z,15.80
2018-08-23T04:48:08.390Z,18.23
2018-08-23T04:50:37.321Z,18.00
2018-08-23T04:53:05.137Z,18.67
2018-08-23T04:55:32.848Z,21.83
2018-08-23T04:58:01.336Z,22.07
2018-08-23T05:00:29.787Z,16.33
2018-08-23T05:02:57.884Z,15.80
2018-08-23T05:05:25.887Z,16.33
2018-08-23T05:07:53.615Z,14.67
2018-08-23T05:10:21.695Z,18.70
2018-08-23T05:12:49.381Z,19.97
2018-08-23T05:15:17.081Z,13.55
2018-08-23T05:17:44.929Z,18.10
2018-08-23T05:20:12.711Z,15.53
2018-08-23T05:22:48.701Z,15.93
2018-08-23T05:25:16.518Z,14.27
2018-08-23T05:28:19.930Z,14.27
2018-08-23T05:30:48.431Z,13.03
2018-08-23T05:33:17.940Z,15.70
2018-08-23T05:35:46.009Z,16.10
2018-08-23T05:38:14.368Z,12.33
2018-08-23T05:40:44.840Z,13.03
2018-08-23T05:43:13.243Z,10.80
2018-08-23T05:45:47.784Z,11.00
2018-08-23T05:48:21.811Z,15.63
2018-08-23T05:50:49.788Z,12.80
2018-08-23T05:53:18.221Z,11.97
2018-08-23T05:55:50.570Z,16.77
2018-08-23T05:58:35.153Z,14.63
2018-08-23T06:01:03.170Z,12.00
2018-08-23T06:03:30.882Z,13.00
2018-08-23T06:05:58.745Z,12.07
2018-08-23T06:08:26.517Z,16.65
2018-08-23T06:10:57.687Z,10.65
2018-08-23T06:13:25.557Z,14.53
2018-08-23T06:15:54.216Z,16.10
2018-08-23T06:18:22.590Z,10.50
2018-08-23T06:20:50.335Z,15.93
2018-08-23T06:23:18.664Z,9.23
2018-08-23T06:25:47.022Z,15.40
2018-08-23T06:28:20.737Z,16.70
2018-08-23T06:30:48.444Z,16.23
2018-08-23T06:33:36.991Z,20.55
2018-08-23T06:36:05.507Z,22.50
2018-08-23T06:38:34.163Z,9.63
2018-08-23T06:41:03.109Z,23.20
2018-08-23T06:43:31.249Z,11.30
2018-08-23T06:45:59.642Z,15.30
2018-08-23T06:48:27.381Z,13.03
2018-08-23T06:50:57.312Z,12.87
2018-08-23T06:53:31.902Z,7.83
2018-08-23T06:55:59.650Z,10.73
2018-08-23T06:58:27.369Z,7.27
2018-08-23T07:00:54.999Z,9.85
2018-08-23T07:03:22.670Z,15.20
2018-08-23T07:05:50.562Z,8.13
2018-08-23T07:08:18.422Z,10.50
2018-08-23T07:10:46.122Z,13.30
2018-08-23T07:13:13.816Z,11.30
2018-08-23T07:15:46.113Z,11.60
2018-08-23T07:18:19.721Z,22.30
2018-08-23T07:20:47.427Z,11.13
2018-08-23T07:23:28.940Z,20.32
2018-08-23T07:25:56.635Z,7.47
2018-08-23T07:28:24.383Z,8.35
2018-08-23T07:30:53.616Z,16.42
2018-08-23T07:33:21.447Z,6.73
2018-08-23T07:36:05.517Z,5.87
2018-08-23T07:38:33.136Z,6.63
2018-08-23T07:41:00.840Z,5.72
2018-08-23T07:43:28.568Z,5.87
2018-08-23T07:45:56.258Z,10.03
2018-08-23T07:48:24.027Z,7.43
2018-08-23T07:50:51.763Z,10.67
2018-08-23T07:53:19.609Z,5.90
2018-08-23T07:55:47.175Z,7.95
2018-08-23T07:58:14.957Z,6.97
2018-08-23T08:00:43.278Z,8.23
2018-08-23T08:03:12.071Z,6.00
2018-08-23T08:05:41.117Z,9.78
2018-08-23T08:08:09.825Z,9.93
2018-08-23T08:10:38.882Z,9.97
2018-08-23T08:13:06.580Z,10.70
2018-08-23T08:15:34.205Z,8.65
2018-08-23T08:18:08.919Z,7.85
2018-08-23T08:20:36.618Z,11.73
2018-08-23T08:23:04.279Z,5.15
2018-08-23T08:25:32.300Z,6.15
2018-08-23T08:28:00.236Z,6.97
2018-08-23T08:30:39.721Z,9.55
2018-08-23T08:33:08.706Z,10.07
2018-08-23T08:35:37.778Z,6.77
2018-08-23T08:38:05.627Z,7.00
2018-08-23T08:40:33.458Z,6.73
2018-08-23T08:43:02.043Z,6.03
2018-08-23T08:45:30.116Z,5.80
2018-08-23T08:48:44.207Z,7.27
2018-08-23T08:51:23.724Z,8.03
2018-08-23T08:53:52.380Z,5.27
2018-08-23T08:56:27.053Z,9.00
2018-08-23T08:58:54.718Z,9.47
2018-08-23T09:01:22.512Z,8.60
2018-08-23T09:03:50.248Z,7.67
2018-08-23T09:06:22.996Z,14.70
2018-08-23T09:08:50.806Z,8.30
2018-08-23T09:11:21.677Z,12.27
2018-08-23T09:13:49.771Z,7.63
2018-08-23T09:16:21.395Z,7.87
2018-08-23T09:18:58.497Z,5.00
2018-08-23T09:21:26.498Z,8.63
2018-08-23T09:23:54.204Z,7.67
2018-08-23T09:26:26.800Z,10.15
2018-08-23T09:28:54.468Z,5.50
2018-08-23T09:31:22.275Z,5.67
2018-08-23T09:33:49.906Z,9.13
2018-08-23T09:36:17.538Z,9.30
2018-08-23T09:38:45.532Z,10.17
2018-08-23T09:41:13.249Z,13.73
2018-08-23T09:43:40.873Z,8.60
2018-08-23T09:46:08.633Z,6.55
2018-08-23T09:48:36.389Z,4.75
2018-08-23T09:51:16.280Z,6.17
2018-08-23T09:53:44.244Z,9.53
2018-08-23T09:56:17.405Z,7.47
2018-08-23T09:58:45.157Z,5.90
2018-08-23T10:01:18.406Z,7.63
2018-08-23T10:03:51.772Z,8.63
2018-08-23T10:06:21.967Z,5.50
2018-08-23T10:09:02.390Z,5.40
2018-08-23T10:11:35.974Z,7.93
2018-08-23T10:14:09.429Z,5.70
2018-08-23T10:16:43.069Z,6.43
2018-08-23T10:19:16.376Z,5.77
2018-08-23T10:21:49.678Z,7.40
2018-08-23T10:24:23.294Z,7.13
2018-08-23T10:26:52.108Z,8.20
2018-08-23T10:29:19.889Z,7.80
2018-08-23T10:31:47.780Z,6.77
2018-08-23T10:34:15.433Z,8.73
2018-08-23T10:36:43.404Z,20.48
2018-08-23T10:39:12.378Z,4.97
2018-08-23T10:41:40.288Z,7.13
2018-08-23T10:44:08.003Z,5.70
2018-08-23T10:46:41.566Z,4.75
2018-08-23T10:49:09.378Z,4.07
2018-08-23T10:51:37.040Z,7.70
2018-08-23T10:54:04.755Z,9.63
2018-08-23T10:56:32.426Z,6.50
2018-08-23T10:59:00.135Z,4.67
2018-08-23T11:01:27.792Z,5.00
2018-08-23T11:03:59.162Z,4.95
2018-08-23T11:06:26.940Z,4.93
2018-08-23T11:09:01.429Z,7.50
2018-08-23T11:11:32.723Z,4.70
2018-08-23T11:14:06.568Z,7.67
2018-08-23T11:16:40.168Z,7.30
2018-08-23T11:19:13.578Z,5.60
2018-08-23T11:21:41.296Z,4.40
2018-08-23T11:24:08.998Z,4.33
2018-08-23T11:26:36.666Z,4.80
2018-08-23T11:29:04.435Z,6.77
2018-08-23T11:31:32.185Z,5.60
2018-08-23T11:33:59.776Z,4.13
2018-08-23T11:36:27.458Z,4.37
2018-08-23T11:38:55.135Z,8.00
2018-08-23T11:41:22.938Z,4.70
2018-08-23T11:43:50.609Z,8.40
2018-08-23T11:46:19.610Z,5.30
2018-08-23T11:48:48.247Z,3.53
2018-08-23T11:51:16.722Z,5.87
2018-08-23T11:53:44.981Z,3.93
2018-08-23T11:56:12.390Z,2.70
2018-08-23T11:58:41.119Z,5.50
2018-08-23T12:01:10.005Z,3.13
2018-08-23T12:03:38.252Z,3.00
2018-08-23T12:06:06.746Z,2.93
2018-08-23T12:08:34.388Z,3.20
2018-08-23T12:11:02.048Z,2.10
2018-08-23T12:13:29.703Z,3.13
2018-08-23T12:15:57.356Z,5.70
2018-08-23T12:18:31.020Z,2.03
2018-08-23T12:20:58.663Z,3.73
2018-08-23T12:23:26.355Z,2.30
2018-08-23T12:25:54.187Z,3.47
2018-08-23T12:28:27.607Z,2.43
2018-08-23T12:30:55.371Z,2.50
2018-08-23T12:33:23.135Z,2.63
2018-08-23T12:35:50.937Z,4.60
2018-08-23T12:38:24.500Z,2.60
2018-08-23T12:40:57.867Z,4.23
2018-08-23T12:43:30.198Z,2.40
2018-08-23T12:46:02.016Z,2.03
2018-08-23T12:48:29.794Z,1.73
2018-08-23T12:50:57.836Z,1.47
2018-08-23T12:53:27.743Z,1.80
2018-08-23T12:55:55.496Z,2.40
2018-08-23T12:58:23.220Z,2.27
2018-08-23T13:00:50.846Z,1.62
2018-08-23T13:03:18.602Z,2.57
2018-08-23T13:05:47.843Z,1.70
2018-08-23T13:08:15.586Z,2.57
2018-08-23T13:10:43.232Z,1.30
2018-08-23T13:13:10.894Z,1.62
2018-08-23T13:15:38.595Z,5.03
2018-08-23T13:18:06.332Z,4.23
2018-08-23T13:20:34.088Z,2.27
2018-08-23T13:23:01.726Z,3.20
2018-08-23T13:25:29.434Z,2.12
2018-08-23T13:27:57.121Z,5.17
2018-08-23T13:30:24.927Z,6.07
2018-08-23T13:32:52.584Z,3.13
2018-08-23T13:37:59.982Z,4.00
2018-08-23T13:40:27.569Z,3.07
2018-08-23T13:42:55.173Z,1.85
2018-08-23T13:45:23.021Z,7.13
2018-08-23T13:47:50.751Z,3.33
2018-08-23T13:50:18.513Z,4.80
2018-08-23T13:52:46.463Z,6.40
2018-08-23T13:55:14.124Z,2.70
2018-08-23T13:57:41.897Z,2.63
2018-08-23T14:00:14.294Z,4.10
2018-08-23T14:02:42.041Z,3.00
2018-08-23T14:05:09.787Z,7.07
2018-08-23T14:07:37.643Z,2.55
2018-08-23T14:10:05.375Z,5.55
2018-08-23T14:12:33.188Z,3.12
2018-08-23T14:15:00.967Z,2.92
2018-08-23T14:17:28.735Z,3.20
2018-08-23T14:19:56.458Z,4.60
2018-08-23T14:22:24.187Z,3.93
2018-08-23T14:24:52.035Z,5.53
2018-08-23T14:27:19.937Z,3.73
2018-08-23T14:29:48.731Z,3.53
2018-08-23T14:32:16.512Z,4.70
2018-08-23T14:34:44.306Z,5.30
2018-08-23T14:37:12.201Z,4.20
2018-08-23T14:39:40.040Z,6.67
2018-08-23T14:42:07.792Z,4.63
2018-08-23T14:44:35.517Z,6.28
2018-08-23T14:47:09.021Z,5.78
2018-08-23T14:49:36.805Z,4.40
2018-08-23T14:52:05.363Z,8.80
2018-08-23T14:54:38.823Z,4.57
2018-08-23T14:57:12.371Z,4.93
2018-08-23T14:59:40.441Z,4.20
2018-08-23T15:02:08.560Z,7.40
2018-08-23T15:04:36.675Z,4.87
2018-08-23T15:07:04.845Z,7.97
2018-08-23T15:09:32.582Z,4.20
2018-08-23T15:12:00.987Z,4.10
2018-08-23T15:14:28.877Z,4.40
2018-08-23T15:16:56.700Z,9.17
2018-08-23T15:19:24.557Z,6.83
2018-08-23T15:21:52.808Z,7.20
2018-08-23T15:24:20.541Z,8.30
2018-08-23T15:26:48.426Z,5.20
2018-08-23T15:29:16.129Z,7.00
2018-08-23T15:31:44.703Z,7.53
2018-08-23T15:34:12.844Z,4.93
2018-08-23T15:36:40.917Z,10.13
2018-08-23T15:39:11.604Z,6.60
2018-08-23T15:41:40.036Z,4.97
2018-08-23T15:44:08.197Z,4.60
2018-08-23T15:46:41.984Z,6.33
2018-08-23T15:49:09.902Z,9.27
2018-08-23T15:51:38.639Z,37.17
2018-08-23T15:54:07.238Z,22.23
2018-08-23T15:56:35.318Z,23.97
2018-08-23T15:59:03.138Z,20.20
2018-08-23T16:01:31.298Z,11.70
2018-08-23T16:03:59.049Z,12.70
2018-08-23T16:06:27.270Z,20.80
2018-08-23T16:08:55.201Z,7.47
2018-08-23T16:11:24.178Z,11.33
2018-08-23T16:13:52.276Z,11.33
2018-08-23T16:16:25.750Z,17.73
2018-08-23T16:18:59.394Z,13.23
2018-08-23T16:21:32.859Z,17.30
2018-08-23T16:24:00.815Z,7.63
2018-08-23T16:26:34.338Z,14.43
2018-08-23T16:29:02.179Z,8.93
2018-08-23T16:31:30.214Z,6.03
2018-08-23T16:33:58.264Z,7.90
2018-08-23T16:36:27.428Z,9.20
2018-08-23T16:38:55.328Z,20.63
2018-08-23T16:41:23.195Z,7.93
2018-08-23T16:43:50.923Z,12.60
2018-08-23T16:46:18.704Z,8.90
2018-08-23T16:48:46.417Z,10.58
2018-08-23T16:51:14.150Z,5.20
2018-08-23T16:53:42.413Z,7.17
2018-08-23T16:56:10.112Z,11.03
2018-08-23T16:58:38.013Z,8.83
2018-08-23T17:01:05.699Z,10.70
2018-08-23T17:03:33.494Z,8.18
2018-08-23T17:06:01.313Z,7.23
2018-08-23T17:08:29.110Z,6.63
2018-08-23T17:10:56.951Z,12.63
2018-08-23T17:13:30.472Z,8.73
2018-08-23T17:16:03.990Z,10.47
2018-08-23T17:18:31.666Z,11.23
2018-08-23T17:20:59.353Z,13.00
2018-08-23T17:23:27.116Z,11.00
2018-08-23T17:25:55.004Z,12.40
2018-08-23T17:28:22.782Z,6.70
2018-08-23T17:30:50.530Z,8.33
2018-08-23T17:33:18.142Z,6.50
2018-08-23T17:35:45.987Z,6.33
2018-08-23T17:38:13.734Z,12.17
2018-08-23T17:40:41.402Z,13.27
2018-08-23T17:43:09.098Z,7.65
2018-08-23T17:45:36.822Z,11.03
2018-08-23T17:48:04.866Z,7.63
2018-08-23T17:50:32.558Z,10.85
2018-08-23T17:53:01.184Z,9.00
2018-08-23T17:55:29.054Z,7.53
2018-08-23T17:57:56.771Z,7.90
2018-08-23T18:00:24.576Z,8.33
2018-08-23T18:02:52.690Z,8.57
2018-08-23T18:05:20.542Z,8.73
2018-08-23T18:07:48.265Z,6.97
2018-08-23T18:10:15.905Z,7.10
2018-08-23T18:12:43.563Z,11.80
2018-08-23T18:15:11.237Z,9.95
2018-08-23T18:17:39.671Z,9.13
2018-08-23T18:20:07.758Z,6.60
2018-08-23T18:22:35.791Z,7.70
2018-08-23T18:25:03.539Z,9.83
2018-08-23T18:27:31.349Z,9.53
2018-08-23T18:29:59.039Z,9.33
2018-08-23T18:32:26.888Z,5.50
2018-08-23T18:34:54.666Z,6.80
2018-08-23T18:37:22.541Z,10.90
2018-08-23T18:39:50.665Z,7.20
2018-08-23T18:42:18.401Z,5.90
2018-08-23T18:44:46.223Z,12.43
2018-08-23T18:47:14.611Z,7.47
2018-08-23T18:49:42.644Z,11.00
2018-08-23T18:52:10.412Z,7.83
2018-08-23T18:54:38.189Z,17.85
2018-08-23T18:57:06.107Z,14.93
2018-08-23T18:59:33.870Z,7.23
2018-08-23T19:02:01.753Z,12.50
2018-08-23T19:04:29.581Z,7.17
2018-08-23T19:06:57.612Z,8.23
2018-08-23T19:09:25.461Z,13.23
2018-08-23T19:11:53.365Z,9.37
2018-08-23T19:14:22.293Z,8.13
2018-08-23T19:16:55.845Z,10.73
2018-08-23T19:19:23.762Z,7.13
2018-08-23T19:21:51.695Z,10.13
2018-08-23T19:24:19.695Z,14.33
2018-08-23T19:26:47.471Z,6.43
2018-08-23T19:29:15.199Z,10.70
2018-08-23T19:31:42.928Z,6.92
2018-08-23T19:34:10.664Z,6.05
2018-08-23T19:36:38.473Z,17.50
2018-08-23T19:39:09.433Z,7.73
2018-08-23T19:41:37.273Z,6.93
2018-08-23T19:44:05.236Z,6.67
2018-08-23T19:46:38.828Z,8.40
2018-08-23T19:49:12.466Z,5.60
2018-08-23T19:51:40.267Z,6.63
2018-08-23T19:54:08.018Z,15.53
2018-08-23T19:56:36.199Z,7.07
2018-08-23T19:59:03.940Z,10.37
2018-08-23T20:01:31.733Z,6.90
2018-08-23T20:03:59.470Z,7.55
2018-08-23T20:06:27.420Z,15.13
2018-08-23T20:08:55.180Z,11.80
2018-08-23T20:11:23.476Z,6.37
2018-08-23T20:13:51.268Z,7.50
2018-08-23T20:16:18.962Z,8.70
2018-08-23T20:18:46.956Z,7.87
2018-08-23T20:21:14.847Z,6.33
2018-08-23T20:23:42.602Z,13.33
2018-08-23T20:26:10.487Z,5.15
2018-08-23T20:28:38.134Z,9.63
2018-08-23T20:31:05.948Z,6.12
2018-08-23T20:33:33.675Z,7.17
2018-08-23T20:36:01.358Z,8.00
2018-08-23T20:38:29.096Z,5.17
2018-08-23T20:40:56.762Z,9.00
2018-08-23T20:43:24.468Z,9.80
2018-08-23T20:45:52.120Z,6.40
2018-08-23T20:48:19.824Z,14.07
2018-08-23T20:50:47.495Z,30.10
2018-08-23T20:53:15.311Z,10.13
2018-08-23T20:55:43.045Z,6.87
2018-08-23T20:58:10.752Z,6.10
2018-08-23T21:00:38.448Z,7.92
2018-08-23T21:03:06.130Z,8.97
2018-08-23T21:05:33.897Z,5.60
2018-08-23T21:08:01.675Z,5.33
2018-08-23T21:10:29.324Z,5.80
2018-08-23T21:12:57.075Z,5.47
2018-08-23T21:15:24.747Z,6.10
2018-08-23T21:17:52.595Z,13.13
2018-08-23T21:20:20.202Z,14.73
2018-08-23T21:22:47.877Z,13.50
2018-08-23T21:25:15.565Z,19.42
2018-08-23T21:27:43.199Z,22.00
2018-08-23T21:30:10.903Z,17.67
2018-08-23T21:32:38.609Z,14.83
2018-08-23T21:35:06.356Z,13.20
2018-08-23T21:37:34.043Z,17.10
2018-08-23T21:40:01.777Z,15.30
2018-08-23T21:42:29.524Z,11.47
2018-08-23T21:44:57.204Z,11.03
2018-08-23T21:47:24.883Z,12.88
2018-08-23T21:49:52.634Z,11.53
2018-08-23T21:52:20.342Z,11.93
2018-08-23T21:54:48.008Z,9.67
2018-08-23T21:57:15.700Z,8.10
2018-08-23T21:59:43.360Z,7.92
2018-08-23T22:02:17.621Z,6.57
2018-08-23T22:04:52.918Z,7.13
2018-08-23T22:07:20.868Z,8.07
2018-08-23T22:09:50.487Z,8.00
2018-08-23T22:12:20.450Z,7.73
2018-08-23T22:14:49.102Z,11.03
2018-08-23T22:17:17.168Z,7.93
2018-08-23T22:19:44.820Z,8.07
2018-08-23T22:22:12.538Z,8.67
2018-08-23T22:24:40.172Z,14.47
2018-08-23T22:27:08.322Z,5.80
2018-08-23T22:29:36.525Z,6.10
2018-08-23T22:32:04.602Z,7.03
2018-08-23T22:34:32.261Z,8.53
2018-08-23T22:36:59.984Z,5.37
2018-08-23T22:39:28.290Z,4.65
2018-08-23T22:41:56.006Z,4.70
2018-08-23T22:44:23.874Z,6.00
2018-08-23T22:46:51.358Z,5.28
2018-08-23T22:49:19.072Z,6.28
2018-08-23T22:51:46.760Z,5.67
2018-08-23T22:54:14.610Z,5.57
2018-08-23T22:56:42.659Z,5.53
2018-08-23T22:59:10.562Z,6.67
2018-08-23T23:01:38.650Z,7.60
2018-08-23T23:04:12.146Z,7.20
2018-08-23T23:06:39.838Z,7.93
2018-08-23T23:09:10.723Z,6.30
2018-08-23T23:11:38.376Z,5.80
2018-08-23T23:14:06.240Z,5.93
2018-08-23T23:16:34.200Z,6.67
2018-08-23T23:19:01.986Z,5.93
2018-08-23T23:21:29.788Z,7.23
2018-08-23T23:23:57.372Z,7.78
2018-08-23T23:26:25.010Z,5.78
2018-08-23T23:28:52.721Z,8.87
2018-08-23T23:31:20.366Z,8.60
2018-08-23T23:33:48.020Z,5.97
2018-08-23T23:36:15.809Z,5.75
2018-08-23T23:38:43.542Z,8.25
2018-08-23T23:41:11.197Z,6.17
2018-08-23T23:43:38.882Z,6.40
2018-08-23T23:46:06.536Z,5.87
2018-08-23T23:48:34.541Z,6.77
2018-08-23T23:51:02.277Z,7.40
2018-08-23T23:53:30.015Z,9.90
2018-08-23T23:55:57.757Z,7.73
2018-08-23T23:58:25.443Z,8.45
